Moonlight II — 9HFR8 — position and weather

sailwx.info

Track history (hours):
 
Tides and Currents Weather Stations Pressure Air Temp Water Temp Dewpoint Dewpoint Depression Visibility Wind Speed Wind Dir Waves Ship Positions

Moonlight II

Last reported at 2016-Sep-18 14:33 UTC. Time now 2016-Oct-01 03:15 UTC.
Position N 36°28' E 015°26'.
Warning: this ship's position is 12 days out of date.

Length 82 m; draft 4.1 m.

Type: Ship. MMSI: 215934000.

Date/timePositionNaut miles runAvg speedWind from/ knotsBaromVisibWave heightAir tempDewpointWater temp
2016-Sep-18 14:33N 36°28' E 015°26'5212.9
2016-Sep-18 10:33N 36°43' E 014°24'1313.4
2016-Sep-18 09:34N 36°48' E 014°09'  
2016-Sep-14 17:26N 43°44' E 007°27'0 0.0
2016-Sep-14 16:14N 43°44' E 007°27'0 0.0
2016-Sep-14 12:29N 43°44' E 007°27'0 0.0
2016-Sep-13 22:14N 43°44' E 007°27'  
2016-Sep-11 16:13N 43°44' E 007°27'4813.0
2016-Sep-11 12:33N 43°60' E 008°29'1414.0
2016-Sep-11 11:33N 44°06' E 008°46'23 7.7
2016-Sep-11 08:33N 44°19' E 009°14'0 0.1
2016-Sep-11 07:33N 44°18' E 009°14'0 0.0
2016-Sep-11 03:33N 44°18' E 009°14'0 0.0
2016-Sep-11 02:30N 44°18' E 009°14'0 0.0
2016-Sep-11 01:30N 44°18' E 009°14'0 0.0
2016-Sep-11 00:33N 44°18' E 009°14'0 0.0
2016-Sep-10 23:33N 44°18' E 009°14'0 0.0
2016-Sep-10 22:30N 44°18' E 009°14'0 0.0
2016-Sep-10 21:33N 44°18' E 009°14'0 0.0
2016-Sep-10 20:33N 44°18' E 009°14'0 0.0
2016-Sep-10 19:33N 44°18' E 009°14'0 0.0
2016-Sep-10 18:33N 44°18' E 009°14'0 0.0
2016-Sep-10 17:33N 44°18' E 009°14'0 0.0
2016-Sep-10 16:33N 44°18' E 009°14'0 0.0
2016-Sep-10 15:27N 44°18' E 009°14'0 0.0
2016-Sep-10 14:33N 44°18' E 009°14'0 0.0
2016-Sep-10 13:33N 44°18' E 009°14'0 0.1
2016-Sep-10 12:15N 44°19' E 009°14'0 0.1
2016-Sep-10 11:30N 44°19' E 009°14'6 6.0
2016-Sep-10 10:33N 44°15' E 009°08'1312.9
2016-Sep-10 09:34N 44°09' E 008°52'1212.5
2016-Sep-10 08:33N 44°02' E 008°37'1212.3
2016-Sep-10 07:33N 43°56' E 008°22'5012.5
2016-Sep-10 03:31N 43°37' E 007°18'7 7.4
2016-Sep-10 02:33N 43°35' E 007°08'0 0.0
2016-Sep-10 01:33N 43°35' E 007°08'0 0.0
2016-Sep-10 00:33N 43°35' E 007°08'0 0.0
2016-Sep-09 23:33N 43°35' E 007°08'0 0.0
2016-Sep-09 22:33N 43°35' E 007°08'0 0.0
2016-Sep-09 21:33N 43°35' E 007°08'0 0.0
2016-Sep-09 20:33N 43°35' E 007°08'0 0.0
2016-Sep-09 19:33N 43°35' E 007°08'0 0.0
2016-Sep-09 18:33N 43°35' E 007°08'0 0.0
2016-Sep-09 17:33N 43°35' E 007°08'0 0.0
2016-Sep-09 16:33N 43°35' E 007°08'6 6.3
2016-Sep-09 15:33N 43°30' E 007°05'4 3.5
2016-Sep-09 14:31N 43°32' E 007°01'0 0.0
2016-Sep-09 13:28N 43°32' E 007°01'0 0.0
2016-Sep-09 12:25N 43°32' E 007°01'0 0.0
2016-Sep-09 11:25N 43°32' E 007°01'0 0.0
2016-Sep-09 10:28N 43°32' E 007°01'0 0.0
2016-Sep-09 09:28N 43°32' E 007°01'0 0.0
2016-Sep-09 08:28N 43°32' E 007°01'0 0.0
2016-Sep-09 07:28N 43°32' E 007°01'0 0.0
2016-Sep-09 06:31N 43°32' E 007°01'1 1.1
2016-Sep-09 05:33N 43°31' E 007°01'  
Track history (hours):
 
Tides and Currents Weather Stations Pressure Air Temp Water Temp Dewpoint Dewpoint Depression Visibility Wind Speed Wind Dir Waves Ship Positions

Moonlight II

Last reported at 2016-Sep-18 14:33 UTC. Time now 2016-Oct-01 03:15 UTC.
Position N 36°28' E 015°26'.
Warning: this ship's position is 12 days out of date.

Length 82 m; draft 4.1 m.

Type: Ship. MMSI: 215934000.

Date/timePositionNaut miles runAvg speedWind from/ knotsBaromVisibWave heightAir tempDewpointWater temp
2016-Sep-18 14:33N 36°28' E 015°26'5212.9
2016-Sep-18 10:33N 36°43' E 014°24'1313.4
2016-Sep-18 09:34N 36°48' E 014°09'  
2016-Sep-14 17:26N 43°44' E 007°27'0 0.0
2016-Sep-14 16:14N 43°44' E 007°27'0 0.0
2016-Sep-14 12:29N 43°44' E 007°27'0 0.0
2016-Sep-13 22:14N 43°44' E 007°27'  
2016-Sep-11 16:13N 43°44' E 007°27'4813.0
2016-Sep-11 12:33N 43°60' E 008°29'1414.0
2016-Sep-11 11:33N 44°06' E 008°46'23 7.7
2016-Sep-11 08:33N 44°19' E 009°14'0 0.1
2016-Sep-11 07:33N 44°18' E 009°14'0 0.0
2016-Sep-11 03:33N 44°18' E 009°14'0 0.0
2016-Sep-11 02:30N 44°18' E 009°14'0 0.0
2016-Sep-11 01:30N 44°18' E 009°14'0 0.0
2016-Sep-11 00:33N 44°18' E 009°14'0 0.0
2016-Sep-10 23:33N 44°18' E 009°14'0 0.0
2016-Sep-10 22:30N 44°18' E 009°14'0 0.0
2016-Sep-10 21:33N 44°18' E 009°14'0 0.0
2016-Sep-10 20:33N 44°18' E 009°14'0 0.0
2016-Sep-10 19:33N 44°18' E 009°14'0 0.0
2016-Sep-10 18:33N 44°18' E 009°14'0 0.0
2016-Sep-10 17:33N 44°18' E 009°14'0 0.0
2016-Sep-10 16:33N 44°18' E 009°14'0 0.0
2016-Sep-10 15:27N 44°18' E 009°14'0 0.0
2016-Sep-10 14:33N 44°18' E 009°14'0 0.0
2016-Sep-10 13:33N 44°18' E 009°14'0 0.1
2016-Sep-10 12:15N 44°19' E 009°14'0 0.1
2016-Sep-10 11:30N 44°19' E 009°14'6 6.0
2016-Sep-10 10:33N 44°15' E 009°08'1312.9
2016-Sep-10 09:34N 44°09' E 008°52'1212.5
2016-Sep-10 08:33N 44°02' E 008°37'1212.3
2016-Sep-10 07:33N 43°56' E 008°22'5012.5
2016-Sep-10 03:31N 43°37' E 007°18'7 7.4
2016-Sep-10 02:33N 43°35' E 007°08'0 0.0
2016-Sep-10 01:33N 43°35' E 007°08'0 0.0
2016-Sep-10 00:33N 43°35' E 007°08'0 0.0
2016-Sep-09 23:33N 43°35' E 007°08'0 0.0
2016-Sep-09 22:33N 43°35' E 007°08'0 0.0
2016-Sep-09 21:33N 43°35' E 007°08'0 0.0
2016-Sep-09 20:33N 43°35' E 007°08'0 0.0
2016-Sep-09 19:33N 43°35' E 007°08'0 0.0
2016-Sep-09 18:33N 43°35' E 007°08'0 0.0
2016-Sep-09 17:33N 43°35' E 007°08'0 0.0
2016-Sep-09 16:33N 43°35' E 007°08'6 6.3
2016-Sep-09 15:33N 43°30' E 007°05'4 3.5
2016-Sep-09 14:31N 43°32' E 007°01'0 0.0
2016-Sep-09 13:28N 43°32' E 007°01'0 0.0
2016-Sep-09 12:25N 43°32' E 007°01'0 0.0
2016-Sep-09 11:25N 43°32' E 007°01'0 0.0
2016-Sep-09 10:28N 43°32' E 007°01'0 0.0
2016-Sep-09 09:28N 43°32' E 007°01'0 0.0
2016-Sep-09 08:28N 43°32' E 007°01'0 0.0
2016-Sep-09 07:28N 43°32' E 007°01'0 0.0
2016-Sep-09 06:31N 43°32' E 007°01'1 1.1
2016-Sep-09 05:33N 43°31' E 007°01'  

Dump ship's entire track history